sensor_id;sensor_type;location;lat;lon;timestamp;P1;durP1;ratioP1;P2;durP2;ratioP2
2558;SDS011;1289;53.488;10.006;2023-02-08T00:00:56;27.88;;;19.75;;
2558;SDS011;1289;53.488;10.006;2023-02-08T00:03:22;27.37;;;19.67;;
2558;SDS011;1289;53.488;10.006;2023-02-08T00:05:49;32.50;;;18.90;;
2558;SDS011;1289;53.488;10.006;2023-02-08T00:08:15;25.50;;;17.83;;
2558;SDS011;1289;53.488;10.006;2023-02-08T00:10:42;24.47;;;19.40;;
2558;SDS011;1289;53.488;10.006;2023-02-08T00:13:09;25.33;;;18.50;;
2558;SDS011;1289;53.488;10.006;2023-02-08T00:15:40;25.52;;;18.95;;
2558;SDS011;1289;53.488;10.006;2023-02-08T00:18:07;22.95;;;19.25;;
2558;SDS011;1289;53.488;10.006;2023-02-08T00:20:35;25.07;;;17.93;;
2558;SDS011;1289;53.488;10.006;2023-02-08T00:23:03;23.20;;;17.93;;
2558;SDS011;1289;53.488;10.006;2023-02-08T00:25:29;20.20;;;17.67;;
2558;SDS011;1289;53.488;10.006;2023-02-08T00:27:56;26.03;;;18.20;;
2558;SDS011;1289;53.488;10.006;2023-02-08T00:30:22;22.10;;;17.20;;
2558;SDS011;1289;53.488;10.006;2023-02-08T00:32:50;24.67;;;19.00;;
2558;SDS011;1289;53.488;10.006;2023-02-08T00:35:17;24.23;;;18.37;;
2558;SDS011;1289;53.488;10.006;2023-02-08T00:37:44;24.87;;;18.07;;
2558;SDS011;1289;53.488;10.006;2023-02-08T00:40:11;29.37;;;18.50;;
2558;SDS011;1289;53.488;10.006;2023-02-08T00:42:38;24.57;;;16.90;;
2558;SDS011;1289;53.488;10.006;2023-02-08T00:45:04;23.77;;;16.75;;
2558;SDS011;1289;53.488;10.006;2023-02-08T00:47:31;29.17;;;17.10;;
2558;SDS011;1289;53.488;10.006;2023-02-08T00:49:59;25.60;;;18.35;;
2558;SDS011;1289;53.488;10.006;2023-02-08T00:52:26;27.20;;;17.83;;
2558;SDS011;1289;53.488;10.006;2023-02-08T00:54:53;23.45;;;16.85;;
2558;SDS011;1289;53.488;10.006;2023-02-08T00:57:20;27.38;;;17.17;;
2558;SDS011;1289;53.488;10.006;2023-02-08T00:59:46;25.85;;;17.83;;
2558;SDS011;1289;53.488;10.006;2023-02-08T01:02:14;25.77;;;18.83;;
2558;SDS011;1289;53.488;10.006;2023-02-08T01:04:40;26.90;;;17.23;;
2558;SDS011;1289;53.488;10.006;2023-02-08T01:07:08;24.80;;;17.90;;
2558;SDS011;1289;53.488;10.006;2023-02-08T01:09:36;22.80;;;16.13;;
2558;SDS011;1289;53.488;10.006;2023-02-08T01:12:02;23.17;;;16.47;;
2558;SDS011;1289;53.488;10.006;2023-02-08T01:14:29;21.08;;;16.45;;
2558;SDS011;1289;53.488;10.006;2023-02-08T01:16:56;18.90;;;16.77;;
2558;SDS011;1289;53.488;10.006;2023-02-08T01:19:23;19.75;;;16.23;;
2558;SDS011;1289;53.488;10.006;2023-02-08T01:21:50;20.98;;;16.52;;
2558;SDS011;1289;53.488;10.006;2023-02-08T01:24:18;22.15;;;17.80;;
2558;SDS011;1289;53.488;10.006;2023-02-08T01:26:44;21.27;;;15.60;;
2558;SDS011;1289;53.488;10.006;2023-02-08T01:29:11;27.75;;;18.90;;
2558;SDS011;1289;53.488;10.006;2023-02-08T01:31:38;22.98;;;16.52;;
2558;SDS011;1289;53.488;10.006;2023-02-08T01:34:07;17.80;;;15.73;;
2558;SDS011;1289;53.488;10.006;2023-02-08T01:36:34;24.02;;;16.25;;
2558;SDS011;1289;53.488;10.006;2023-02-08T01:39:02;25.92;;;15.90;;
2558;SDS011;1289;53.488;10.006;2023-02-08T01:41:31;20.65;;;15.88;;
2558;SDS011;1289;53.488;10.006;2023-02-08T01:46:59;19.67;;;16.27;;
2558;SDS011;1289;53.488;10.006;2023-02-08T01:49:27;22.42;;;17.48;;
2558;SDS011;1289;53.488;10.006;2023-02-08T01:51:55;20.75;;;15.75;;
2558;SDS011;1289;53.488;10.006;2023-02-08T01:54:25;18.50;;;15.48;;
2558;SDS011;1289;53.488;10.006;2023-02-08T01:56:55;24.70;;;16.65;;
2558;SDS011;1289;53.488;10.006;2023-02-08T01:59:24;23.95;;;17.35;;
2558;SDS011;1289;53.488;10.006;2023-02-08T02:01:52;24.17;;;16.85;;
2558;SDS011;1289;53.488;10.006;2023-02-08T02:04:19;21.85;;;16.00;;
2558;SDS011;1289;53.488;10.006;2023-02-08T02:06:48;23.80;;;16.45;;
2558;SDS011;1289;53.488;10.006;2023-02-08T02:09:19;23.38;;;17.80;;
2558;SDS011;1289;53.488;10.006;2023-02-08T02:11:49;21.83;;;16.30;;
2558;SDS011;1289;53.488;10.006;2023-02-08T02:14:18;23.48;;;17.33;;
2558;SDS011;1289;53.488;10.006;2023-02-08T02:16:45;21.83;;;17.23;;
2558;SDS011;1289;53.488;10.006;2023-02-08T02:19:13;22.80;;;16.50;;
2558;SDS011;1289;53.488;10.006;2023-02-08T02:21:53;25.85;;;18.05;;
2558;SDS011;1289;53.488;10.006;2023-02-08T02:24:35;25.23;;;17.52;;
2558;SDS011;1289;53.488;10.006;2023-02-08T02:30:00;23.60;;;16.55;;
2558;SDS011;1289;53.488;10.006;2023-02-08T02:32:45;20.65;;;15.85;;
2558;SDS011;1289;53.488;10.006;2023-02-08T02:35:18;23.33;;;17.52;;
2558;SDS011;1289;53.488;10.006;2023-02-08T02:37:53;26.17;;;17.10;;
2558;SDS011;1289;53.488;10.006;2023-02-08T02:40:25;23.35;;;16.90;;
2558;SDS011;1289;53.488;10.006;2023-02-08T02:42:58;21.50;;;17.83;;
2558;SDS011;1289;53.488;10.006;2023-02-08T02:45:47;23.73;;;17.13;;
2558;SDS011;1289;53.488;10.006;2023-02-08T02:48:21;23.20;;;16.98;;
2558;SDS011;1289;53.488;10.006;2023-02-08T02:50:52;23.35;;;18.35;;
2558;SDS011;1289;53.488;10.006;2023-02-08T02:53:23;22.42;;;16.60;;
2558;SDS011;1289;53.488;10.006;2023-02-08T02:55:55;29.65;;;19.48;;
2558;SDS011;1289;53.488;10.006;2023-02-08T02:58:25;25.30;;;17.60;;
2558;SDS011;1289;53.488;10.006;2023-02-08T03:00:53;23.08;;;17.70;;
2558;SDS011;1289;53.488;10.006;2023-02-08T03:03:23;25.27;;;17.50;;
2558;SDS011;1289;53.488;10.006;2023-02-08T03:05:52;22.35;;;17.85;;
2558;SDS011;1289;53.488;10.006;2023-02-08T03:08:23;25.30;;;18.90;;
2558;SDS011;1289;53.488;10.006;2023-02-08T03:11:10;29.67;;;16.45;;
2558;SDS011;1289;53.488;10.006;2023-02-08T03:13:52;20.17;;;16.02;;
2558;SDS011;1289;53.488;10.006;2023-02-08T03:16:30;23.92;;;17.55;;
2558;SDS011;1289;53.488;10.006;2023-02-08T03:19:03;28.05;;;17.48;;
2558;SDS011;1289;53.488;10.006;2023-02-08T03:21:34;21.77;;;17.13;;
2558;SDS011;1289;53.488;10.006;2023-02-08T03:24:06;19.93;;;15.90;;
2558;SDS011;1289;53.488;10.006;2023-02-08T03:26:39;24.42;;;17.58;;
2558;SDS011;1289;53.488;10.006;2023-02-08T03:29:10;21.70;;;15.98;;
2558;SDS011;1289;53.488;10.006;2023-02-08T03:31:42;24.60;;;17.70;;
2558;SDS011;1289;53.488;10.006;2023-02-08T03:34:15;21.13;;;18.20;;
2558;SDS011;1289;53.488;10.006;2023-02-08T03:36:46;18.98;;;16.23;;
2558;SDS011;1289;53.488;10.006;2023-02-08T03:39:15;22.65;;;16.48;;
2558;SDS011;1289;53.488;10.006;2023-02-08T03:41:45;22.10;;;15.32;;
2558;SDS011;1289;53.488;10.006;2023-02-08T03:44:13;27.73;;;15.30;;
2558;SDS011;1289;53.488;10.006;2023-02-08T03:46:42;24.98;;;18.95;;
2558;SDS011;1289;53.488;10.006;2023-02-08T03:49:16;19.38;;;16.80;;
2558;SDS011;1289;53.488;10.006;2023-02-08T03:51:45;22.27;;;17.55;;
2558;SDS011;1289;53.488;10.006;2023-02-08T03:54:12;25.13;;;17.05;;
2558;SDS011;1289;53.488;10.006;2023-02-08T03:56:42;23.08;;;17.70;;
2558;SDS011;1289;53.488;10.006;2023-02-08T03:59:11;28.83;;;18.17;;
2558;SDS011;1289;53.488;10.006;2023-02-08T04:01:41;25.70;;;17.13;;
2558;SDS011;1289;53.488;10.006;2023-02-08T04:04:10;24.27;;;17.33;;
2558;SDS011;1289;53.488;10.006;2023-02-08T04:06:39;24.50;;;18.50;;
2558;SDS011;1289;53.488;10.006;2023-02-08T04:09:06;21.83;;;17.15;;
2558;SDS011;1289;53.488;10.006;2023-02-08T04:11:32;26.80;;;18.85;;
2558;SDS011;1289;53.488;10.006;2023-02-08T04:13:59;20.60;;;17.58;;
2558;SDS011;1289;53.488;10.006;2023-02-08T04:16:26;22.63;;;17.48;;
2558;SDS011;1289;53.488;10.006;2023-02-08T04:18:52;22.25;;;17.33;;
2558;SDS011;1289;53.488;10.006;2023-02-08T04:21:19;21.13;;;17.27;;
2558;SDS011;1289;53.488;10.006;2023-02-08T04:23:47;24.10;;;17.90;;
2558;SDS011;1289;53.488;10.006;2023-02-08T04:26:14;26.88;;;18.42;;
2558;SDS011;1289;53.488;10.006;2023-02-08T04:28:40;24.67;;;16.88;;
2558;SDS011;1289;53.488;10.006;2023-02-08T04:31:07;24.85;;;17.75;;
2558;SDS011;1289;53.488;10.006;2023-02-08T04:33:33;24.30;;;16.65;;
2558;SDS011;1289;53.488;10.006;2023-02-08T04:36:00;20.90;;;16.50;;
2558;SDS011;1289;53.488;10.006;2023-02-08T04:38:26;25.05;;;18.02;;
2558;SDS011;1289;53.488;10.006;2023-02-08T04:40:55;24.88;;;19.67;;
2558;SDS011;1289;53.488;10.006;2023-02-08T04:43:21;26.02;;;19.00;;
2558;SDS011;1289;53.488;10.006;2023-02-08T04:45:48;27.27;;;20.35;;
2558;SDS011;1289;53.488;10.006;2023-02-08T04:48:15;32.47;;;19.40;;
2558;SDS011;1289;53.488;10.006;2023-02-08T04:50:42;29.42;;;20.30;;
2558;SDS011;1289;53.488;10.006;2023-02-08T04:53:08;31.15;;;21.88;;
2558;SDS011;1289;53.488;10.006;2023-02-08T04:55:35;32.58;;;21.08;;
2558;SDS011;1289;53.488;10.006;2023-02-08T04:58:03;29.42;;;21.65;;
2558;SDS011;1289;53.488;10.006;2023-02-08T05:00:29;29.30;;;21.15;;
2558;SDS011;1289;53.488;10.006;2023-02-08T05:02:57;32.63;;;22.13;;
2558;SDS011;1289;53.488;10.006;2023-02-08T05:05:24;33.70;;;21.63;;
2558;SDS011;1289;53.488;10.006;2023-02-08T05:07:51;35.95;;;21.90;;
2558;SDS011;1289;53.488;10.006;2023-02-08T05:10:17;32.38;;;21.90;;
2558;SDS011;1289;53.488;10.006;2023-02-08T05:12:44;38.25;;;23.65;;
2558;SDS011;1289;53.488;10.006;2023-02-08T05:15:12;40.88;;;25.48;;
2558;SDS011;1289;53.488;10.006;2023-02-08T05:17:39;35.38;;;21.88;;
2558;SDS011;1289;53.488;10.006;2023-02-08T05:20:05;32.05;;;22.88;;
2558;SDS011;1289;53.488;10.006;2023-02-08T05:22:33;30.88;;;22.00;;
2558;SDS011;1289;53.488;10.006;2023-02-08T05:24:59;33.80;;;23.05;;
2558;SDS011;1289;53.488;10.006;2023-02-08T05:27:26;38.58;;;24.25;;
2558;SDS011;1289;53.488;10.006;2023-02-08T05:29:52;38.50;;;22.83;;
2558;SDS011;1289;53.488;10.006;2023-02-08T05:32:20;34.20;;;22.95;;
2558;SDS011;1289;53.488;10.006;2023-02-08T05:34:47;39.47;;;22.55;;
2558;SDS011;1289;53.488;10.006;2023-02-08T05:37:13;35.13;;;20.60;;
2558;SDS011;1289;53.488;10.006;2023-02-08T05:39:40;37.65;;;22.70;;
2558;SDS011;1289;53.488;10.006;2023-02-08T05:42:06;35.50;;;22.85;;
2558;SDS011;1289;53.488;10.006;2023-02-08T05:44:33;34.42;;;21.10;;
2558;SDS011;1289;53.488;10.006;2023-02-08T05:47:00;34.35;;;22.92;;
2558;SDS011;1289;53.488;10.006;2023-02-08T05:49:29;33.03;;;22.38;;
2558;SDS011;1289;53.488;10.006;2023-02-08T05:51:55;34.40;;;23.95;;
2558;SDS011;1289;53.488;10.006;2023-02-08T05:54:22;35.60;;;22.83;;
2558;SDS011;1289;53.488;10.006;2023-02-08T05:56:49;37.50;;;23.00;;
2558;SDS011;1289;53.488;10.006;2023-02-08T05:59:15;39.35;;;23.67;;
2558;SDS011;1289;53.488;10.006;2023-02-08T06:01:42;36.40;;;22.38;;
2558;SDS011;1289;53.488;10.006;2023-02-08T06:04:08;37.80;;;22.60;;
2558;SDS011;1289;53.488;10.006;2023-02-08T06:06:36;39.33;;;22.60;;
2558;SDS011;1289;53.488;10.006;2023-02-08T06:09:03;49.45;;;23.73;;
2558;SDS011;1289;53.488;10.006;2023-02-08T06:11:29;34.45;;;22.70;;
2558;SDS011;1289;53.488;10.006;2023-02-08T06:13:56;36.88;;;23.23;;
2558;SDS011;1289;53.488;10.006;2023-02-08T06:16:22;40.08;;;25.17;;
2558;SDS011;1289;53.488;10.006;2023-02-08T06:18:49;36.70;;;22.35;;
2558;SDS011;1289;53.488;10.006;2023-02-08T06:21:16;41.80;;;25.20;;
2558;SDS011;1289;53.488;10.006;2023-02-08T06:23:44;39.95;;;24.42;;
2558;SDS011;1289;53.488;10.006;2023-02-08T06:26:10;34.22;;;23.63;;
2558;SDS011;1289;53.488;10.006;2023-02-08T06:28:37;35.70;;;22.15;;
2558;SDS011;1289;53.488;10.006;2023-02-08T06:31:04;39.00;;;23.30;;
2558;SDS011;1289;53.488;10.006;2023-02-08T06:33:31;37.40;;;23.73;;
2558;SDS011;1289;53.488;10.006;2023-02-08T06:35:57;39.67;;;23.02;;
2558;SDS011;1289;53.488;10.006;2023-02-08T06:38:24;35.67;;;23.10;;
2558;SDS011;1289;53.488;10.006;2023-02-08T06:40:52;46.00;;;23.60;;
2558;SDS011;1289;53.488;10.006;2023-02-08T06:43:19;38.55;;;22.42;;
2558;SDS011;1289;53.488;10.006;2023-02-08T06:45:46;40.25;;;23.30;;
2558;SDS011;1289;53.488;10.006;2023-02-08T06:48:12;39.88;;;24.73;;
2558;SDS011;1289;53.488;10.006;2023-02-08T06:50:39;37.45;;;24.20;;
2558;SDS011;1289;53.488;10.006;2023-02-08T06:53:06;34.28;;;22.48;;
2558;SDS011;1289;53.488;10.006;2023-02-08T06:55:33;36.70;;;23.20;;
2558;SDS011;1289;53.488;10.006;2023-02-08T06:58:00;37.28;;;24.05;;
2558;SDS011;1289;53.488;10.006;2023-02-08T07:00:27;37.65;;;22.33;;
2558;SDS011;1289;53.488;10.006;2023-02-08T07:02:54;36.63;;;22.85;;
2558;SDS011;1289;53.488;10.006;2023-02-08T07:05:21;35.72;;;22.48;;
2558;SDS011;1289;53.488;10.006;2023-02-08T07:07:47;41.10;;;23.15;;
2558;SDS011;1289;53.488;10.006;2023-02-08T07:10:15;28.80;;;20.55;;
2558;SDS011;1289;53.488;10.006;2023-02-08T07:12:42;37.25;;;23.08;;
2558;SDS011;1289;53.488;10.006;2023-02-08T07:15:10;30.65;;;21.05;;
2558;SDS011;1289;53.488;10.006;2023-02-08T07:17:37;36.40;;;22.45;;
2558;SDS011;1289;53.488;10.006;2023-02-08T07:20:04;38.53;;;22.30;;
2558;SDS011;1289;53.488;10.006;2023-02-08T07:22:32;35.92;;;22.83;;
2558;SDS011;1289;53.488;10.006;2023-02-08T07:24:58;42.80;;;25.35;;
2558;SDS011;1289;53.488;10.006;2023-02-08T07:27:25;39.80;;;24.48;;
2558;SDS011;1289;53.488;10.006;2023-02-08T07:29:52;45.40;;;24.30;;
2558;SDS011;1289;53.488;10.006;2023-02-08T07:32:20;42.80;;;23.95;;
2558;SDS011;1289;53.488;10.006;2023-02-08T07:34:46;37.50;;;22.02;;
2558;SDS011;1289;53.488;10.006;2023-02-08T07:37:13;48.95;;;29.15;;
2558;SDS011;1289;53.488;10.006;2023-02-08T07:39:39;50.10;;;27.10;;
2558;SDS011;1289;53.488;10.006;2023-02-08T07:42:06;48.70;;;29.80;;
2558;SDS011;1289;53.488;10.006;2023-02-08T07:44:40;45.70;;;30.63;;
2558;SDS011;1289;53.488;10.006;2023-02-08T07:47:06;43.47;;;28.70;;
2558;SDS011;1289;53.488;10.006;2023-02-08T07:49:34;44.50;;;27.33;;
2558;SDS011;1289;53.488;10.006;2023-02-08T07:52:01;34.63;;;24.53;;
2558;SDS011;1289;53.488;10.006;2023-02-08T07:54:28;32.90;;;23.53;;
2558;SDS011;1289;53.488;10.006;2023-02-08T07:56:55;33.13;;;22.70;;
2558;SDS011;1289;53.488;10.006;2023-02-08T07:59:21;35.70;;;23.47;;
2558;SDS011;1289;53.488;10.006;2023-02-08T08:01:48;35.17;;;21.53;;
2558;SDS011;1289;53.488;10.006;2023-02-08T08:04:15;33.40;;;20.97;;
2558;SDS011;1289;53.488;10.006;2023-02-08T08:06:45;36.50;;;22.63;;
2558;SDS011;1289;53.488;10.006;2023-02-08T08:09:11;28.40;;;20.20;;
2558;SDS011;1289;53.488;10.006;2023-02-08T08:11:39;33.00;;;23.17;;
2558;SDS011;1289;53.488;10.006;2023-02-08T08:14:06;32.17;;;22.37;;
2558;SDS011;1289;53.488;10.006;2023-02-08T08:16:32;31.30;;;22.40;;
2558;SDS011;1289;53.488;10.006;2023-02-08T08:18:59;33.47;;;21.00;;
2558;SDS011;1289;53.488;10.006;2023-02-08T08:21:25;37.70;;;25.93;;
2558;SDS011;1289;53.488;10.006;2023-02-08T08:23:53;38.10;;;21.50;;
2558;SDS011;1289;53.488;10.006;2023-02-08T08:26:20;33.03;;;23.20;;
2558;SDS011;1289;53.488;10.006;2023-02-08T08:28:47;36.57;;;24.73;;
2558;SDS011;1289;53.488;10.006;2023-02-08T08:31:15;43.13;;;23.90;;
2558;SDS011;1289;53.488;10.006;2023-02-08T08:33:42;35.40;;;24.30;;
2558;SDS011;1289;53.488;10.006;2023-02-08T08:36:09;36.97;;;25.60;;
2558;SDS011;1289;53.488;10.006;2023-02-08T08:38:36;40.73;;;26.37;;
2558;SDS011;1289;53.488;10.006;2023-02-08T08:41:06;41.63;;;25.20;;
2558;SDS011;1289;53.488;10.006;2023-02-08T08:43:34;39.80;;;27.30;;
2558;SDS011;1289;53.488;10.006;2023-02-08T08:46:01;42.73;;;25.97;;
2558;SDS011;1289;53.488;10.006;2023-02-08T08:48:28;42.83;;;29.03;;
2558;SDS011;1289;53.488;10.006;2023-02-08T08:50:54;41.50;;;26.07;;
2558;SDS011;1289;53.488;10.006;2023-02-08T08:53:21;37.87;;;26.00;;
2558;SDS011;1289;53.488;10.006;2023-02-08T08:55:48;40.37;;;23.63;;
2558;SDS011;1289;53.488;10.006;2023-02-08T08:58:16;35.80;;;23.43;;
2558;SDS011;1289;53.488;10.006;2023-02-08T09:00:42;40.67;;;25.67;;
2558;SDS011;1289;53.488;10.006;2023-02-08T09:03:09;34.00;;;24.63;;
2558;SDS011;1289;53.488;10.006;2023-02-08T09:05:35;37.23;;;24.13;;
2558;SDS011;1289;53.488;10.006;2023-02-08T09:08:02;38.47;;;24.07;;
2558;SDS011;1289;53.488;10.006;2023-02-08T09:10:29;39.70;;;23.10;;
2558;SDS011;1289;53.488;10.006;2023-02-08T09:12:56;36.87;;;22.60;;
2558;SDS011;1289;53.488;10.006;2023-02-08T09:15:24;38.90;;;24.23;;
2558;SDS011;1289;53.488;10.006;2023-02-08T09:17:50;36.77;;;24.03;;
2558;SDS011;1289;53.488;10.006;2023-02-08T09:20:17;38.63;;;26.20;;
2558;SDS011;1289;53.488;10.006;2023-02-08T09:22:43;35.50;;;23.83;;
2558;SDS011;1289;53.488;10.006;2023-02-08T09:25:10;35.37;;;24.20;;
2558;SDS011;1289;53.488;10.006;2023-02-08T09:27:37;40.50;;;25.90;;
2558;SDS011;1289;53.488;10.006;2023-02-08T09:30:03;36.10;;;25.00;;
2558;SDS011;1289;53.488;10.006;2023-02-08T09:32:32;42.80;;;24.30;;
2558;SDS011;1289;53.488;10.006;2023-02-08T09:34:59;37.37;;;24.40;;
2558;SDS011;1289;53.488;10.006;2023-02-08T09:37:26;37.57;;;24.10;;
2558;SDS011;1289;53.488;10.006;2023-02-08T09:39:53;37.27;;;23.57;;
2558;SDS011;1289;53.488;10.006;2023-02-08T09:42:28;39.33;;;26.67;;
2558;SDS011;1289;53.488;10.006;2023-02-08T09:45:02;40.67;;;26.23;;
2558;SDS011;1289;53.488;10.006;2023-02-08T09:47:35;37.67;;;24.03;;
2558;SDS011;1289;53.488;10.006;2023-02-08T09:50:03;33.70;;;24.30;;
2558;SDS011;1289;53.488;10.006;2023-02-08T09:52:33;36.07;;;25.37;;
2558;SDS011;1289;53.488;10.006;2023-02-08T09:55:03;37.10;;;24.53;;
2558;SDS011;1289;53.488;10.006;2023-02-08T09:57:41;33.03;;;23.87;;
2558;SDS011;1289;53.488;10.006;2023-02-08T10:00:10;38.17;;;24.77;;
2558;SDS011;1289;53.488;10.006;2023-02-08T10:02:40;33.40;;;22.37;;
2558;SDS011;1289;53.488;10.006;2023-02-08T10:05:09;38.93;;;25.23;;
2558;SDS011;1289;53.488;10.006;2023-02-08T10:07:37;37.27;;;25.30;;
2558;SDS011;1289;53.488;10.006;2023-02-08T10:10:05;32.03;;;22.00;;
2558;SDS011;1289;53.488;10.006;2023-02-08T10:12:37;31.90;;;23.03;;
2558;SDS011;1289;53.488;10.006;2023-02-08T10:15:16;34.27;;;22.97;;
2558;SDS011;1289;53.488;10.006;2023-02-08T10:17:54;31.70;;;22.07;;
2558;SDS011;1289;53.488;10.006;2023-02-08T10:20:54;30.23;;;21.60;;
2558;SDS011;1289;53.488;10.006;2023-02-08T10:23:30;30.30;;;20.90;;
2558;SDS011;1289;53.488;10.006;2023-02-08T10:26:11;38.80;;;23.03;;
2558;SDS011;1289;53.488;10.006;2023-02-08T10:28:44;31.13;;;23.13;;
2558;SDS011;1289;53.488;10.006;2023-02-08T10:31:23;35.37;;;21.90;;
2558;SDS011;1289;53.488;10.006;2023-02-08T10:33:59;34.70;;;22.90;;
2558;SDS011;1289;53.488;10.006;2023-02-08T10:36:28;32.20;;;22.57;;
2558;SDS011;1289;53.488;10.006;2023-02-08T10:38:57;29.93;;;21.60;;
2558;SDS011;1289;53.488;10.006;2023-02-08T10:41:25;31.30;;;22.00;;
2558;SDS011;1289;53.488;10.006;2023-02-08T10:43:55;29.90;;;21.80;;
2558;SDS011;1289;53.488;10.006;2023-02-08T10:46:28;36.13;;;23.40;;
2558;SDS011;1289;53.488;10.006;2023-02-08T10:49:02;33.70;;;23.20;;
2558;SDS011;1289;53.488;10.006;2023-02-08T10:51:33;31.33;;;22.57;;
2558;SDS011;1289;53.488;10.006;2023-02-08T10:53:59;33.17;;;22.50;;
2558;SDS011;1289;53.488;10.006;2023-02-08T10:56:33;31.30;;;22.63;;
2558;SDS011;1289;53.488;10.006;2023-02-08T10:59:05;31.23;;;22.20;;
2558;SDS011;1289;53.488;10.006;2023-02-08T11:01:36;30.47;;;21.87;;
2558;SDS011;1289;53.488;10.006;2023-02-08T11:04:05;28.93;;;20.07;;
2558;SDS011;1289;53.488;10.006;2023-02-08T11:06:34;32.63;;;21.57;;
2558;SDS011;1289;53.488;10.006;2023-02-08T11:09:01;29.43;;;21.33;;
2558;SDS011;1289;53.488;10.006;2023-02-08T11:11:30;30.07;;;20.60;;
2558;SDS011;1289;53.488;10.006;2023-02-08T11:14:04;30.90;;;19.43;;
2558;SDS011;1289;53.488;10.006;2023-02-08T11:16:33;28.77;;;20.57;;
2558;SDS011;1289;53.488;10.006;2023-02-08T11:19:00;32.67;;;21.10;;
2558;SDS011;1289;53.488;10.006;2023-02-08T11:21:31;29.27;;;20.20;;
2558;SDS011;1289;53.488;10.006;2023-02-08T11:23:59;28.03;;;19.37;;
2558;SDS011;1289;53.488;10.006;2023-02-08T11:26:30;31.70;;;21.90;;
2558;SDS011;1289;53.488;10.006;2023-02-08T11:29:00;26.93;;;21.37;;
2558;SDS011;1289;53.488;10.006;2023-02-08T11:31:28;32.30;;;20.83;;
2558;SDS011;1289;53.488;10.006;2023-02-08T11:34:00;27.63;;;20.47;;
2558;SDS011;1289;53.488;10.006;2023-02-08T11:36:28;27.10;;;20.00;;
2558;SDS011;1289;53.488;10.006;2023-02-08T11:39:03;30.87;;;20.20;;
2558;SDS011;1289;53.488;10.006;2023-02-08T11:41:41;24.73;;;19.10;;
2558;SDS011;1289;53.488;10.006;2023-02-08T11:44:12;27.37;;;18.67;;
2558;SDS011;1289;53.488;10.006;2023-02-08T11:46:43;30.67;;;19.53;;
2558;SDS011;1289;53.488;10.006;2023-02-08T11:49:16;26.20;;;18.60;;
2558;SDS011;1289;53.488;10.006;2023-02-08T11:51:47;32.63;;;22.40;;
2558;SDS011;1289;53.488;10.006;2023-02-08T11:57:10;28.33;;;20.17;;
2558;SDS011;1289;53.488;10.006;2023-02-08T11:59:38;26.70;;;18.73;;
2558;SDS011;1289;53.488;10.006;2023-02-08T12:02:21;27.33;;;18.13;;
2558;SDS011;1289;53.488;10.006;2023-02-08T12:04:52;27.23;;;18.27;;
2558;SDS011;1289;53.488;10.006;2023-02-08T12:07:21;25.97;;;18.47;;
2558;SDS011;1289;53.488;10.006;2023-02-08T12:09:58;22.87;;;15.77;;
2558;SDS011;1289;53.488;10.006;2023-02-08T12:12:48;24.97;;;16.13;;
2558;SDS011;1289;53.488;10.006;2023-02-08T12:15:23;23.10;;;16.47;;
2558;SDS011;1289;53.488;10.006;2023-02-08T12:17:58;19.57;;;15.30;;
2558;SDS011;1289;53.488;10.006;2023-02-08T12:20:35;24.03;;;17.27;;
2558;SDS011;1289;53.488;10.006;2023-02-08T12:26:19;22.87;;;15.60;;
2558;SDS011;1289;53.488;10.006;2023-02-08T12:31:48;26.90;;;18.20;;
2558;SDS011;1289;53.488;10.006;2023-02-08T12:34:29;21.93;;;15.40;;
2558;SDS011;1289;53.488;10.006;2023-02-08T12:37:12;25.90;;;17.13;;
2558;SDS011;1289;53.488;10.006;2023-02-08T12:40:09;21.00;;;14.70;;
2558;SDS011;1289;53.488;10.006;2023-02-08T12:43:02;21.57;;;16.03;;
2558;SDS011;1289;53.488;10.006;2023-02-08T12:45:41;22.50;;;15.60;;
2558;SDS011;1289;53.488;10.006;2023-02-08T12:48:19;22.33;;;16.43;;
2558;SDS011;1289;53.488;10.006;2023-02-08T12:50:55;24.40;;;15.80;;
2558;SDS011;1289;53.488;10.006;2023-02-08T12:53:28;21.10;;;15.60;;
2558;SDS011;1289;53.488;10.006;2023-02-08T12:55:59;27.63;;;16.70;;
2558;SDS011;1289;53.488;10.006;2023-02-08T12:58:28;22.33;;;16.67;;
2558;SDS011;1289;53.488;10.006;2023-02-08T13:00:56;20.70;;;15.37;;
2558;SDS011;1289;53.488;10.006;2023-02-08T13:03:30;22.40;;;15.83;;
2558;SDS011;1289;53.488;10.006;2023-02-08T13:06:02;22.73;;;15.73;;
2558;SDS011;1289;53.488;10.006;2023-02-08T13:08:32;24.17;;;15.23;;
2558;SDS011;1289;53.488;10.006;2023-02-08T13:11:03;22.77;;;16.23;;
2558;SDS011;1289;53.488;10.006;2023-02-08T13:13:33;19.70;;;15.83;;
2558;SDS011;1289;53.488;10.006;2023-02-08T13:16:02;19.47;;;14.67;;
2558;SDS011;1289;53.488;10.006;2023-02-08T13:18:34;21.87;;;15.00;;
2558;SDS011;1289;53.488;10.006;2023-02-08T13:21:04;20.07;;;13.93;;
2558;SDS011;1289;53.488;10.006;2023-02-08T13:23:33;19.30;;;14.43;;
2558;SDS011;1289;53.488;10.006;2023-02-08T13:26:05;21.70;;;15.30;;
2558;SDS011;1289;53.488;10.006;2023-02-08T13:28:33;18.50;;;13.27;;
2558;SDS011;1289;53.488;10.006;2023-02-08T13:31:02;17.67;;;13.20;;
2558;SDS011;1289;53.488;10.006;2023-02-08T13:33:33;16.37;;;13.30;;
2558;SDS011;1289;53.488;10.006;2023-02-08T13:36:01;17.83;;;13.10;;
2558;SDS011;1289;53.488;10.006;2023-02-08T13:38:29;14.80;;;10.70;;
2558;SDS011;1289;53.488;10.006;2023-02-08T13:41:00;15.60;;;11.40;;
2558;SDS011;1289;53.488;10.006;2023-02-08T13:43:42;15.50;;;10.37;;
2558;SDS011;1289;53.488;10.006;2023-02-08T13:46:12;13.57;;;10.00;;
2558;SDS011;1289;53.488;10.006;2023-02-08T13:48:40;12.67;;;10.43;;
2558;SDS011;1289;53.488;10.006;2023-02-08T13:54:24;10.90;;;9.80;;
2558;SDS011;1289;53.488;10.006;2023-02-08T13:56:52;15.13;;;10.50;;
2558;SDS011;1289;53.488;10.006;2023-02-08T13:59:29;16.33;;;9.93;;
2558;SDS011;1289;53.488;10.006;2023-02-08T14:04:51;12.13;;;9.70;;
2558;SDS011;1289;53.488;10.006;2023-02-08T14:07:21;15.13;;;12.67;;
2558;SDS011;1289;53.488;10.006;2023-02-08T14:09:59;11.77;;;9.53;;
2558;SDS011;1289;53.488;10.006;2023-02-08T14:12:34;10.77;;;9.23;;
2558;SDS011;1289;53.488;10.006;2023-02-08T14:15:15;10.37;;;8.23;;
2558;SDS011;1289;53.488;10.006;2023-02-08T14:17:49;10.20;;;9.13;;
2558;SDS011;1289;53.488;10.006;2023-02-08T14:20:19;11.43;;;8.63;;
2558;SDS011;1289;53.488;10.006;2023-02-08T14:22:48;12.53;;;10.63;;
2558;SDS011;1289;53.488;10.006;2023-02-08T14:25:16;10.60;;;8.13;;
2558;SDS011;1289;53.488;10.006;2023-02-08T14:27:49;13.50;;;9.93;;
2558;SDS011;1289;53.488;10.006;2023-02-08T14:30:20;15.73;;;9.93;;
2558;SDS011;1289;53.488;10.006;2023-02-08T14:32:49;11.10;;;9.87;;
2558;SDS011;1289;53.488;10.006;2023-02-08T14:35:18;12.30;;;8.57;;
2558;SDS011;1289;53.488;10.006;2023-02-08T14:37:47;9.93;;;9.00;;
2558;SDS011;1289;53.488;10.006;2023-02-08T14:40:30;11.17;;;8.10;;
2558;SDS011;1289;53.488;10.006;2023-02-08T14:43:00;11.13;;;9.23;;
2558;SDS011;1289;53.488;10.006;2023-02-08T14:45:29;17.47;;;12.43;;
2558;SDS011;1289;53.488;10.006;2023-02-08T14:47:59;16.50;;;12.77;;
2558;SDS011;1289;53.488;10.006;2023-02-08T14:50:35;19.00;;;13.67;;
2558;SDS011;1289;53.488;10.006;2023-02-08T14:53:14;22.40;;;12.87;;
2558;SDS011;1289;53.488;10.006;2023-02-08T14:55:53;18.43;;;13.47;;
2558;SDS011;1289;53.488;10.006;2023-02-08T14:58:29;24.40;;;15.73;;
2558;SDS011;1289;53.488;10.006;2023-02-08T15:00:58;18.67;;;13.30;;
2558;SDS011;1289;53.488;10.006;2023-02-08T15:03:26;17.77;;;13.83;;
2558;SDS011;1289;53.488;10.006;2023-02-08T15:06:00;27.00;;;16.70;;
2558;SDS011;1289;53.488;10.006;2023-02-08T15:08:32;21.07;;;13.77;;
2558;SDS011;1289;53.488;10.006;2023-02-08T15:10:58;19.60;;;15.43;;